createdAt,value
2018-08-21T00:00:19.827Z,99.90
2018-08-21T00:02:48.739Z,99.90
2018-08-21T00:05:17.594Z,99.90
2018-08-21T00:07:46.575Z,99.90
2018-08-21T00:10:15.566Z,99.90
2018-08-21T00:12:44.463Z,99.90
2018-08-21T00:15:17.666Z,99.90
2018-08-21T00:17:46.759Z,99.90
2018-08-21T00:20:21.427Z,99.90
2018-08-21T00:22:52.831Z,99.90
2018-08-21T00:25:23.626Z,99.90
2018-08-21T00:27:52.467Z,99.90
2018-08-21T00:30:41.443Z,99.90
2018-08-21T00:33:10.717Z,99.90
2018-08-21T00:35:45.671Z,99.90
2018-08-21T00:38:15.679Z,99.90
2018-08-21T00:40:44.499Z,99.90
2018-08-21T00:43:13.371Z,99.90
2018-08-21T00:45:42.237Z,99.90
2018-08-21T00:48:11.135Z,99.90
2018-08-21T00:50:39.931Z,99.90
2018-08-21T00:53:08.842Z,99.90
2018-08-21T00:55:37.803Z,99.90
2018-08-21T00:58:06.758Z,99.90
2018-08-21T01:00:35.651Z,99.90
2018-08-21T01:03:04.555Z,99.90
2018-08-21T01:05:33.530Z,99.90
2018-08-21T01:08:03.276Z,99.90
2018-08-21T01:10:32.171Z,99.90
2018-08-21T01:13:01.050Z,99.90
2018-08-21T01:15:29.969Z,99.90
2018-08-21T01:17:58.895Z,99.90
2018-08-21T01:20:27.754Z,99.90
2018-08-21T01:22:56.587Z,99.90
2018-08-21T01:25:25.523Z,99.90
2018-08-21T01:27:54.341Z,99.90
2018-08-21T01:30:23.226Z,99.90
2018-08-21T01:32:52.046Z,99.90
2018-08-21T01:35:21.059Z,99.90
2018-08-21T01:37:49.916Z,99.90
2018-08-21T01:40:18.751Z,99.90
2018-08-21T01:42:47.606Z,99.90
2018-08-21T01:45:16.520Z,99.90
2018-08-21T01:47:45.391Z,99.90
2018-08-21T01:50:14.243Z,99.90
2018-08-21T01:52:43.175Z,99.90
2018-08-21T01:55:12.136Z,99.90
2018-08-21T01:57:40.938Z,99.90
2018-08-21T02:00:09.763Z,99.90
2018-08-21T02:02:38.645Z,99.90
2018-08-21T02:05:07.684Z,99.90
2018-08-21T02:07:36.531Z,99.90
2018-08-21T02:10:05.663Z,99.90
2018-08-21T02:12:34.514Z,99.90
2018-08-21T02:15:04.172Z,99.90
2018-08-21T02:17:33.034Z,99.90
2018-08-21T02:20:01.879Z,99.90
2018-08-21T02:22:30.728Z,99.90
2018-08-21T02:24:59.604Z,99.90
2018-08-21T02:27:28.518Z,99.90
2018-08-21T02:29:57.385Z,99.90
2018-08-21T02:32:26.253Z,99.90
2018-08-21T02:34:55.146Z,99.90
2018-08-21T02:37:23.975Z,99.90
2018-08-21T02:40:31.583Z,99.90
2018-08-21T02:43:00.433Z,99.90
2018-08-21T02:45:29.347Z,99.90
2018-08-21T02:47:58.183Z,99.90
2018-08-21T02:50:27.003Z,99.90
2018-08-21T02:52:55.870Z,99.90
2018-08-21T02:55:24.860Z,99.90
2018-08-21T02:57:53.685Z,99.90
2018-08-21T03:00:22.520Z,99.90
2018-08-21T03:02:51.390Z,99.90
2018-08-21T03:05:20.352Z,99.90
2018-08-21T03:07:49.159Z,99.90
2018-08-21T03:10:18.009Z,99.90
2018-08-21T03:12:46.952Z,99.90
2018-08-21T03:15:15.803Z,99.90
2018-08-21T03:17:44.627Z,99.90
2018-08-21T03:20:13.507Z,99.90
2018-08-21T03:22:42.330Z,99.90
2018-08-21T03:25:11.255Z,99.90
2018-08-21T03:27:40.061Z,99.90
2018-08-21T03:30:09.187Z,99.90
2018-08-21T03:32:38.037Z,99.90
2018-08-21T03:35:07.059Z,99.90
2018-08-21T03:37:35.871Z,99.90
2018-08-21T03:40:04.765Z,99.90
2018-08-21T03:42:35.039Z,99.90
2018-08-21T03:45:04.989Z,99.90
2018-08-21T03:47:42.752Z,99.90
2018-08-21T03:50:12.143Z,99.90
2018-08-21T03:52:41.060Z,99.90
2018-08-21T03:55:10.986Z,99.90
2018-08-21T03:57:40.087Z,99.90
2018-08-21T04:00:16.003Z,99.90
2018-08-21T04:02:44.846Z,99.90
2018-08-21T04:05:13.927Z,99.90
2018-08-21T04:07:44.363Z,99.90
2018-08-21T04:10:13.280Z,99.90
2018-08-21T04:12:42.066Z,99.90
2018-08-21T04:15:11.034Z,99.90
2018-08-21T04:17:39.852Z,99.90
2018-08-21T04:20:10.450Z,99.90
2018-08-21T04:22:40.442Z,99.90
2018-08-21T04:25:09.759Z,99.90
2018-08-21T04:27:38.638Z,99.90
2018-08-21T04:30:10.098Z,99.90
2018-08-21T04:32:38.945Z,99.90
2018-08-21T04:35:07.888Z,99.90
2018-08-21T04:37:36.946Z,99.90
2018-08-21T04:40:05.848Z,99.90
2018-08-21T04:42:34.686Z,99.90
2018-08-21T04:45:06.679Z,99.90
2018-08-21T04:47:40.248Z,99.90
2018-08-21T04:50:10.842Z,99.90
2018-08-21T04:52:42.470Z,99.90
2018-08-21T04:55:11.442Z,99.90
2018-08-21T04:57:43.162Z,99.90
2018-08-21T05:00:12.334Z,99.90
2018-08-21T05:02:49.416Z,99.90
2018-08-21T05:05:18.727Z,99.90
2018-08-21T05:07:55.060Z,99.90
2018-08-21T05:10:24.195Z,99.90
2018-08-21T05:12:55.451Z,99.90
2018-08-21T05:15:26.186Z,99.90
2018-08-21T05:17:59.375Z,99.90
2018-08-21T05:20:29.192Z,99.90
2018-08-21T05:22:58.086Z,99.90
2018-08-21T05:25:52.405Z,99.90
2018-08-21T05:28:22.857Z,99.90
2018-08-21T05:31:00.576Z,99.90
2018-08-21T05:33:30.430Z,99.90
2018-08-21T05:36:02.099Z,99.90
2018-08-21T05:38:33.083Z,99.90
2018-08-21T05:41:04.652Z,99.90
2018-08-21T05:43:35.181Z,99.90
2018-08-21T05:46:05.339Z,99.90
2018-08-21T05:48:35.501Z,99.90
2018-08-21T05:51:04.731Z,99.90
2018-08-21T05:53:33.546Z,99.90
2018-08-21T05:56:02.519Z,99.90
2018-08-21T05:58:31.442Z,99.90
2018-08-21T06:01:00.343Z,99.90
2018-08-21T06:03:29.336Z,99.90
2018-08-21T06:05:58.315Z,99.90
2018-08-21T06:08:27.184Z,99.90
2018-08-21T06:10:56.186Z,99.90
2018-08-21T06:13:25.035Z,99.90
2018-08-21T06:15:54.063Z,99.90
2018-08-21T06:18:23.278Z,99.90
2018-08-21T06:20:54.299Z,99.90
2018-08-21T06:23:25.602Z,99.90
2018-08-21T06:25:54.549Z,99.90
2018-08-21T06:28:27.631Z,99.90
2018-08-21T06:30:56.488Z,99.90
2018-08-21T06:33:25.360Z,99.90
2018-08-21T06:35:54.259Z,99.90
2018-08-21T06:38:23.119Z,99.90
2018-08-21T06:40:51.951Z,99.90
2018-08-21T06:43:20.802Z,99.90
2018-08-21T06:45:52.511Z,99.90
2018-08-21T06:48:21.443Z,99.90
2018-08-21T06:50:50.256Z,99.90
2018-08-21T06:53:19.071Z,99.90
2018-08-21T06:55:48.015Z,99.90
2018-08-21T06:58:16.841Z,99.90
2018-08-21T07:00:46.173Z,99.90
2018-08-21T07:03:15.059Z,99.90
2018-08-21T07:05:43.912Z,99.90
2018-08-21T07:08:13.219Z,99.90
2018-08-21T07:10:42.163Z,99.90
2018-08-21T07:13:11.046Z,99.90
2018-08-21T07:15:39.946Z,99.90
2018-08-21T07:18:09.607Z,99.90
2018-08-21T07:20:38.450Z,99.90
2018-08-21T07:23:07.417Z,99.90
2018-08-21T07:25:42.634Z,99.90
2018-08-21T07:28:17.088Z,99.90
2018-08-21T07:30:50.444Z,99.90
2018-08-21T07:33:23.212Z,99.90
2018-08-21T07:35:52.761Z,99.90
2018-08-21T07:38:21.626Z,99.90
2018-08-21T07:40:50.458Z,99.90
2018-08-21T07:43:26.936Z,99.90
2018-08-21T07:46:00.490Z,99.90
2018-08-21T07:48:29.818Z,99.90
2018-08-21T07:50:58.651Z,99.90
2018-08-21T07:53:27.455Z,99.90
2018-08-21T07:55:56.303Z,99.90
2018-08-21T07:58:25.167Z,99.90
2018-08-21T08:00:54.000Z,99.90
2018-08-21T08:03:22.839Z,99.90
2018-08-21T08:05:51.763Z,99.90
2018-08-21T08:08:20.583Z,99.90
2018-08-21T08:10:49.431Z,99.90
2018-08-21T08:13:20.812Z,99.90
2018-08-21T08:15:49.759Z,99.90
2018-08-21T08:18:18.809Z,99.90
2018-08-21T08:20:47.830Z,99.90
2018-08-21T08:23:16.941Z,99.90
2018-08-21T08:25:45.744Z,99.60
2018-08-21T08:28:14.542Z,99.70
2018-08-21T08:30:43.374Z,99.60
2018-08-21T08:33:12.227Z,99.80
2018-08-21T08:35:41.123Z,99.50
2018-08-21T08:38:15.531Z,99.90
2018-08-21T08:40:44.356Z,99.90
2018-08-21T08:43:13.269Z,99.90
2018-08-21T08:45:44.465Z,99.40
2018-08-21T08:48:15.543Z,99.00
2018-08-21T08:50:44.859Z,99.20
2018-08-21T08:53:13.955Z,99.00
2018-08-21T08:55:48.184Z,99.30
2018-08-21T08:58:21.930Z,99.90
2018-08-21T09:00:56.340Z,98.40
2018-08-21T09:04:00.392Z,97.40
2018-08-21T09:06:30.405Z,97.60
2018-08-21T09:08:59.411Z,97.80
2018-08-21T09:11:37.711Z,97.10
2018-08-21T09:14:07.035Z,97.30
2018-08-21T09:16:35.858Z,98.90
2018-08-21T09:19:04.691Z,96.60
2018-08-21T09:21:33.514Z,96.60
2018-08-21T09:24:02.334Z,95.40
2018-08-21T09:26:36.414Z,96.30
2018-08-21T09:29:06.027Z,96.00
2018-08-21T09:31:42.566Z,94.40
2018-08-21T09:34:11.393Z,95.40
2018-08-21T09:36:57.180Z,95.40
2018-08-21T09:39:26.446Z,94.30
2018-08-21T09:42:07.996Z,94.50
2018-08-21T09:44:36.860Z,93.70
2018-08-21T09:47:05.733Z,94.30
2018-08-21T09:49:35.098Z,95.30
2018-08-21T09:52:03.928Z,94.80
2018-08-21T09:54:49.091Z,94.80
2018-08-21T09:57:18.765Z,94.00
2018-08-21T09:59:47.627Z,93.10
2018-08-21T10:02:22.088Z,94.80
2018-08-21T10:05:55.479Z,92.60
2018-08-21T10:08:24.606Z,92.00
2018-08-21T10:10:53.420Z,92.70
2018-08-21T10:13:22.309Z,92.20
2018-08-21T10:15:51.106Z,92.30
2018-08-21T10:18:19.987Z,92.30
2018-08-21T10:20:48.772Z,93.60
2018-08-21T10:23:17.598Z,93.80
2018-08-21T10:25:46.476Z,92.10
2018-08-21T10:28:19.799Z,94.10
2018-08-21T10:30:53.138Z,93.30
2018-08-21T10:33:21.940Z,93.10
2018-08-21T10:35:55.472Z,92.90
2018-08-21T10:38:24.257Z,92.60
2018-08-21T10:40:53.257Z,93.60
2018-08-21T10:43:22.147Z,93.00
2018-08-21T10:46:54.127Z,92.80
2018-08-21T10:49:22.923Z,92.40
2018-08-21T10:51:51.763Z,94.00
2018-08-21T10:54:20.591Z,93.90
2018-08-21T10:56:49.394Z,92.90
2018-08-21T10:59:18.250Z,91.70
2018-08-21T11:01:47.059Z,93.30
2018-08-21T11:04:15.870Z,91.70
2018-08-21T11:06:44.692Z,92.00
2018-08-21T11:09:13.531Z,91.20
2018-08-21T11:11:42.372Z,90.70
2018-08-21T11:14:12.249Z,90.00
2018-08-21T11:16:41.169Z,90.90
2018-08-21T11:19:10.012Z,92.60
2018-08-21T11:21:38.839Z,91.90
2018-08-21T11:24:07.712Z,90.90
2018-08-21T11:26:36.759Z,90.10
2018-08-21T11:29:05.607Z,90.80
2018-08-21T11:31:34.454Z,92.20
2018-08-21T11:34:03.330Z,91.50
2018-08-21T11:39:33.217Z,92.80
2018-08-21T11:42:02.116Z,91.40
2018-08-21T11:44:31.028Z,91.10
2018-08-21T11:46:59.835Z,90.40
2018-08-21T11:49:28.635Z,89.80
2018-08-21T11:51:57.422Z,86.60
2018-08-21T11:54:26.230Z,88.80
2018-08-21T11:56:55.048Z,90.10
2018-08-21T11:59:24.046Z,85.30
2018-08-21T12:01:53.229Z,87.60
2018-08-21T12:04:22.064Z,84.60
2018-08-21T12:06:50.882Z,85.20
2018-08-21T12:09:19.663Z,83.40
2018-08-21T12:11:48.466Z,83.10
2018-08-21T12:14:17.242Z,83.00
2018-08-21T12:16:46.035Z,81.20
2018-08-21T12:19:14.832Z,85.50
2018-08-21T12:21:43.643Z,81.20
2018-08-21T12:24:12.444Z,75.40
2018-08-21T12:26:41.320Z,77.40
2018-08-21T12:29:10.113Z,71.30
2018-08-21T12:31:41.875Z,69.40
2018-08-21T12:34:10.697Z,65.30
2018-08-21T12:36:39.501Z,66.60
2018-08-21T12:39:11.799Z,65.30
2018-08-21T12:41:41.186Z,63.70
2018-08-21T12:44:10.391Z,64.50
2018-08-21T12:46:39.220Z,64.80
2018-08-21T12:49:08.269Z,63.20
2018-08-21T12:51:37.088Z,64.20
2018-08-21T12:54:05.890Z,66.50
2018-08-21T12:56:34.706Z,63.50
2018-08-21T12:59:03.544Z,63.70
2018-08-21T13:01:32.375Z,58.60
2018-08-21T13:04:01.285Z,60.70
2018-08-21T13:06:30.095Z,62.20
2018-08-21T13:08:58.918Z,63.50
2018-08-21T13:11:27.708Z,61.00
2018-08-21T13:13:56.483Z,63.40
2018-08-21T13:16:25.267Z,64.30
2018-08-21T13:18:54.136Z,65.90
2018-08-21T13:21:22.931Z,63.00
2018-08-21T13:23:51.754Z,63.20
2018-08-21T13:26:20.546Z,63.50
2018-08-21T13:28:49.382Z,65.60
2018-08-21T13:31:18.247Z,68.50
2018-08-21T13:33:47.044Z,71.40
2018-08-21T13:36:15.897Z,70.70
2018-08-21T13:38:44.722Z,73.30
2018-08-21T13:41:13.509Z,70.80
2018-08-21T13:43:42.366Z,71.80
2018-08-21T13:46:11.131Z,72.20
2018-08-21T13:48:39.914Z,70.30
2018-08-21T13:51:08.720Z,73.40
2018-08-21T13:53:37.505Z,71.70
2018-08-21T13:56:06.776Z,72.00
2018-08-21T13:58:35.587Z,72.10
2018-08-21T14:01:04.399Z,67.40
2018-08-21T14:03:33.192Z,71.10
2018-08-21T14:06:01.987Z,71.20
2018-08-21T14:08:30.778Z,72.00
2018-08-21T14:10:59.576Z,71.50
2018-08-21T14:13:28.367Z,69.20
2018-08-21T14:15:57.207Z,68.50
2018-08-21T14:18:26.001Z,71.70
2018-08-21T14:20:54.846Z,71.40
2018-08-21T14:23:23.664Z,70.10
2018-08-21T14:25:52.535Z,72.90
2018-08-21T14:28:21.335Z,73.50
2018-08-21T14:30:50.135Z,73.10
2018-08-21T14:33:18.941Z,75.10
2018-08-21T14:35:47.756Z,74.80
2018-08-21T14:38:16.552Z,74.50
2018-08-21T14:40:45.341Z,73.60
2018-08-21T14:43:14.142Z,73.60
2018-08-21T14:45:42.975Z,74.10
2018-08-21T14:48:11.787Z,73.90
2018-08-21T14:50:40.583Z,72.90
2018-08-21T14:53:09.395Z,72.60
2018-08-21T14:55:38.199Z,76.10
2018-08-21T14:58:06.995Z,73.70
2018-08-21T15:00:35.879Z,73.60
2018-08-21T15:03:04.804Z,72.90
2018-08-21T15:05:33.607Z,75.00
2018-08-21T15:08:02.374Z,74.20
2018-08-21T15:10:31.225Z,75.00
2018-08-21T15:12:59.978Z,75.80
2018-08-21T15:15:28.810Z,76.20
2018-08-21T15:17:57.595Z,77.40
2018-08-21T15:20:26.395Z,78.00
2018-08-21T15:22:55.200Z,76.00
2018-08-21T15:25:24.002Z,81.20
2018-08-21T15:27:52.799Z,82.40
2018-08-21T15:30:21.583Z,83.10
2018-08-21T15:32:50.399Z,84.50
2018-08-21T15:35:19.184Z,83.70
2018-08-21T15:37:47.979Z,83.80
2018-08-21T15:40:16.847Z,79.60
2018-08-21T15:42:45.657Z,84.70
2018-08-21T15:45:14.452Z,83.30
2018-08-21T15:47:43.270Z,83.50
2018-08-21T15:50:12.051Z,83.80
2018-08-21T15:52:41.626Z,83.60
2018-08-21T15:55:10.431Z,84.90
2018-08-21T15:57:39.214Z,84.80
2018-08-21T16:00:08.075Z,84.80
2018-08-21T16:02:36.974Z,85.40
2018-08-21T16:05:06.436Z,83.20
2018-08-21T16:07:39.786Z,85.90
2018-08-21T16:10:08.572Z,85.90
2018-08-21T16:12:37.677Z,87.30
2018-08-21T16:15:07.215Z,86.00
2018-08-21T16:17:36.091Z,87.10
2018-08-21T16:20:05.127Z,85.90
2018-08-21T16:22:33.907Z,87.50
2018-08-21T16:25:02.787Z,86.70
2018-08-21T16:27:31.584Z,86.50
2018-08-21T16:30:00.446Z,87.00
2018-08-21T16:32:29.268Z,87.30
2018-08-21T16:34:58.092Z,88.00
2018-08-21T16:37:27.148Z,89.10
2018-08-21T16:39:56.194Z,90.00
2018-08-21T16:42:24.785Z,90.60
2018-08-21T16:44:53.586Z,90.70
2018-08-21T16:47:22.386Z,90.80
2018-08-21T16:49:51.200Z,91.40
2018-08-21T16:52:20.009Z,91.30
2018-08-21T16:54:48.970Z,91.70
2018-08-21T16:57:17.759Z,92.20
2018-08-21T16:59:46.553Z,92.40
2018-08-21T17:02:15.370Z,92.70
2018-08-21T17:04:44.154Z,92.90
2018-08-21T17:07:12.943Z,92.90
2018-08-21T17:09:41.745Z,93.40
2018-08-21T17:12:10.552Z,93.60
2018-08-21T17:14:39.333Z,93.80
2018-08-21T17:17:08.186Z,94.20
2018-08-21T17:19:36.999Z,94.20
2018-08-21T17:22:05.836Z,94.50
2018-08-21T17:24:34.682Z,94.80
2018-08-21T17:27:03.555Z,94.90
2018-08-21T17:29:32.341Z,95.20
2018-08-21T17:32:01.216Z,95.30
2018-08-21T17:34:30.080Z,95.30
2018-08-21T17:36:58.946Z,95.70
2018-08-21T17:39:27.803Z,95.70
2018-08-21T17:41:56.684Z,96.10
2018-08-21T17:44:25.523Z,96.00
2018-08-21T17:46:54.418Z,96.50
2018-08-21T17:49:23.323Z,96.70
2018-08-21T17:51:52.326Z,96.70
2018-08-21T17:54:21.198Z,96.50
2018-08-21T17:56:49.975Z,96.40
2018-08-21T17:59:18.830Z,96.40
2018-08-21T18:01:47.974Z,96.60
2018-08-21T18:04:17.035Z,96.90
2018-08-21T18:06:45.951Z,96.60
2018-08-21T18:09:14.739Z,97.00
2018-08-21T18:11:43.626Z,97.20
2018-08-21T18:14:12.468Z,97.60
2018-08-21T18:16:41.313Z,97.50
2018-08-21T18:19:10.253Z,97.80
2018-08-21T18:21:39.034Z,97.90
2018-08-21T18:24:08.069Z,98.10
2018-08-21T18:26:36.932Z,98.50
2018-08-21T18:29:05.737Z,98.90
2018-08-21T18:31:34.584Z,99.00
2018-08-21T18:34:03.427Z,99.20
2018-08-21T18:36:32.311Z,99.30
2018-08-21T18:39:01.124Z,99.40
2018-08-21T18:41:29.950Z,99.40
2018-08-21T18:43:58.739Z,99.60
2018-08-21T18:46:28.522Z,99.60
2018-08-21T18:48:57.497Z,99.60
2018-08-21T18:51:26.331Z,99.60
2018-08-21T18:53:55.162Z,99.60
2018-08-21T18:56:24.120Z,99.50
2018-08-21T18:58:52.931Z,99.70
2018-08-21T19:01:21.757Z,99.90
2018-08-21T19:03:50.648Z,99.70
2018-08-21T19:06:19.518Z,99.90
2018-08-21T19:08:48.331Z,99.90
2018-08-21T19:11:17.111Z,99.90
2018-08-21T19:13:45.914Z,99.90
2018-08-21T19:16:14.875Z,99.90
2018-08-21T19:18:43.715Z,99.90
2018-08-21T19:21:12.566Z,99.90
2018-08-21T19:23:42.003Z,99.90
2018-08-21T19:26:11.745Z,99.90
2018-08-21T19:28:40.751Z,99.90
2018-08-21T19:31:09.567Z,99.90
2018-08-21T19:33:38.418Z,99.90
2018-08-21T19:36:07.330Z,99.90
2018-08-21T19:38:36.161Z,99.90
2018-08-21T19:41:05.004Z,99.90
2018-08-21T19:43:34.504Z,99.90
2018-08-21T19:46:03.388Z,99.90
2018-08-21T19:48:32.184Z,99.90
2018-08-21T19:51:01.049Z,99.90
2018-08-21T19:53:30.819Z,99.90
2018-08-21T19:55:59.810Z,99.90
2018-08-21T19:58:28.655Z,99.90
2018-08-21T20:00:57.478Z,99.90
2018-08-21T20:03:26.349Z,99.90
2018-08-21T20:05:55.322Z,99.90
2018-08-21T20:08:24.294Z,99.90
2018-08-21T20:10:53.116Z,99.90
2018-08-21T20:13:21.957Z,99.90
2018-08-21T20:15:50.831Z,99.90
2018-08-21T20:18:19.776Z,99.90
2018-08-21T20:20:48.639Z,99.90
2018-08-21T20:23:17.476Z,99.90
2018-08-21T20:25:46.376Z,99.90
2018-08-21T20:28:15.183Z,99.90
2018-08-21T20:30:44.413Z,99.90
2018-08-21T20:33:13.307Z,99.90
2018-08-21T20:35:42.189Z,99.90
2018-08-21T20:38:11.084Z,99.90
2018-08-21T20:40:45.074Z,99.90
2018-08-21T20:43:13.912Z,99.90
2018-08-21T20:45:42.824Z,99.90
2018-08-21T20:48:11.651Z,99.90
2018-08-21T20:50:40.572Z,99.90
2018-08-21T20:53:09.380Z,99.90
2018-08-21T20:55:38.343Z,99.90
2018-08-21T20:58:07.206Z,99.90
2018-08-21T21:00:36.027Z,99.90
2018-08-21T21:03:05.196Z,99.90
2018-08-21T21:05:34.419Z,99.90
2018-08-21T21:08:03.969Z,99.90
2018-08-21T21:10:32.819Z,99.90
2018-08-21T21:12:59.983Z,99.90
2018-08-21T21:15:45.866Z,99.90
2018-08-21T21:18:31.700Z,99.90
2018-08-21T21:21:17.531Z,99.90
2018-08-21T21:23:44.691Z,99.90
2018-08-21T21:26:13.687Z,99.90
2018-08-21T21:28:43.870Z,99.90
2018-08-21T21:31:12.799Z,99.90
2018-08-21T21:33:41.541Z,99.90
2018-08-21T21:36:10.399Z,99.90
2018-08-21T21:38:39.187Z,99.90
2018-08-21T21:41:08.048Z,99.90
2018-08-21T21:43:36.851Z,99.90
2018-08-21T21:46:05.745Z,99.90
2018-08-21T21:48:34.974Z,99.90
2018-08-21T21:51:03.938Z,99.90
2018-08-21T21:53:32.780Z,99.90
2018-08-21T21:56:01.631Z,99.90
2018-08-21T21:58:30.534Z,99.90
2018-08-21T22:00:59.375Z,99.90
2018-08-21T22:03:28.221Z,99.90
2018-08-21T22:05:57.108Z,99.90
2018-08-21T22:08:25.939Z,99.90
2018-08-21T22:10:54.782Z,99.90
2018-08-21T22:13:23.596Z,99.90
2018-08-21T22:15:52.459Z,99.90
2018-08-21T22:18:21.350Z,99.90
2018-08-21T22:20:50.179Z,99.90
2018-08-21T22:23:19.079Z,99.90
2018-08-21T22:25:47.998Z,99.90
2018-08-21T22:28:16.824Z,99.90
2018-08-21T22:30:45.624Z,99.90
2018-08-21T22:33:14.447Z,99.90
2018-08-21T22:35:43.374Z,99.90
2018-08-21T22:38:12.178Z,99.90
2018-08-21T22:40:41.015Z,99.90
2018-08-21T22:43:09.887Z,99.90
2018-08-21T22:45:38.744Z,99.90
2018-08-21T22:48:07.652Z,99.90
2018-08-21T22:50:36.491Z,99.90
2018-08-21T22:53:05.548Z,99.90
2018-08-21T22:55:34.483Z,99.90
2018-08-21T22:58:03.391Z,99.90
2018-08-21T23:00:32.233Z,99.90
2018-08-21T23:03:01.054Z,99.90
2018-08-21T23:05:29.950Z,99.90
2018-08-21T23:07:58.782Z,99.90
2018-08-21T23:10:27.652Z,99.90
2018-08-21T23:12:56.475Z,99.90
2018-08-21T23:15:25.336Z,99.90
2018-08-21T23:17:54.179Z,99.90
2018-08-21T23:20:23.035Z,99.90
2018-08-21T23:22:51.879Z,99.90
2018-08-21T23:25:20.774Z,99.90
2018-08-21T23:27:49.719Z,99.90
2018-08-21T23:30:18.672Z,99.90
2018-08-21T23:32:47.526Z,99.90
2018-08-21T23:35:16.571Z,99.90
2018-08-21T23:37:45.391Z,99.90
2018-08-21T23:40:14.198Z,99.90
2018-08-21T23:42:43.034Z,99.90
2018-08-21T23:45:11.891Z,99.90
2018-08-21T23:47:40.719Z,99.90
2018-08-21T23:50:09.518Z,99.90
2018-08-21T23:52:38.326Z,99.90
2018-08-21T23:55:07.262Z,99.90
2018-08-21T23:57:36.078Z,99.90
